sensor_id;sensor_type;location;lat;lon;timestamp;temperature;humidity
32139;DHT22;18644;48.700;9.210;2023-03-31T00:02:00;13.80;56.10
32139;DHT22;18644;48.700;9.210;2023-03-31T00:04:32;13.80;56.10
32139;DHT22;18644;48.700;9.210;2023-03-31T00:07:00;13.80;56.20
32139;DHT22;18644;48.700;9.210;2023-03-31T00:09:30;13.80;56.20
32139;DHT22;18644;48.700;9.210;2023-03-31T00:11:57;13.70;56.10
32139;DHT22;18644;48.700;9.210;2023-03-31T00:14:24;13.70;56.10
32139;DHT22;18644;48.700;9.210;2023-03-31T00:16:51;13.70;56.20
32139;DHT22;18644;48.700;9.210;2023-03-31T00:19:18;13.60;56.20
32139;DHT22;18644;48.700;9.210;2023-03-31T00:21:46;13.60;56.30
32139;DHT22;18644;48.700;9.210;2023-03-31T00:24:17;13.60;56.40
32139;DHT22;18644;48.700;9.210;2023-03-31T00:26:44;13.50;56.50
32139;DHT22;18644;48.700;9.210;2023-03-31T00:29:12;13.50;56.50
32139;DHT22;18644;48.700;9.210;2023-03-31T00:31:39;13.40;56.60
32139;DHT22;18644;48.700;9.210;2023-03-31T00:34:07;13.40;56.70
32139;DHT22;18644;48.700;9.210;2023-03-31T00:36:34;13.40;56.80
32139;DHT22;18644;48.700;9.210;2023-03-31T00:39:10;13.30;56.80
32139;DHT22;18644;48.700;9.210;2023-03-31T00:41:38;13.30;56.90
32139;DHT22;18644;48.700;9.210;2023-03-31T00:44:09;13.30;57.00
32139;DHT22;18644;48.700;9.210;2023-03-31T00:46:38;13.30;57.10
32139;DHT22;18644;48.700;9.210;2023-03-31T00:49:13;13.30;57.30
32139;DHT22;18644;48.700;9.210;2023-03-31T00:51:46;13.30;57.10
32139;DHT22;18644;48.700;9.210;2023-03-31T00:54:13;13.30;57.20
32139;DHT22;18644;48.700;9.210;2023-03-31T00:56:46;13.30;57.30
32139;DHT22;18644;48.700;9.210;2023-03-31T00:59:15;13.30;57.40
32139;DHT22;18644;48.700;9.210;2023-03-31T01:04:14;13.30;57.40
32139;DHT22;18644;48.700;9.210;2023-03-31T01:06:49;13.30;57.50
32139;DHT22;18644;48.700;9.210;2023-03-31T01:09:23;13.30;58.10
32139;DHT22;18644;48.700;9.210;2023-03-31T01:11:51;13.30;57.50
32139;DHT22;18644;48.700;9.210;2023-03-31T01:14:18;13.40;57.50
32139;DHT22;18644;48.700;9.210;2023-03-31T01:16:46;13.40;57.40
32139;DHT22;18644;48.700;9.210;2023-03-31T01:19:19;13.40;57.40
32139;DHT22;18644;48.700;9.210;2023-03-31T01:22:29;13.40;57.50
32139;DHT22;18644;48.700;9.210;2023-03-31T01:25:26;13.40;57.60
32139;DHT22;18644;48.700;9.210;2023-03-31T01:28:13;13.40;57.40
32139;DHT22;18644;48.700;9.210;2023-03-31T01:31:12;13.40;57.40
32139;DHT22;18644;48.700;9.210;2023-03-31T01:34:39;13.40;57.50
32139;DHT22;18644;48.700;9.210;2023-03-31T01:37:58;13.40;57.60
32139;DHT22;18644;48.700;9.210;2023-03-31T01:40:54;13.30;57.60
32139;DHT22;18644;48.700;9.210;2023-03-31T01:43:30;13.30;57.50
32139;DHT22;18644;48.700;9.210;2023-03-31T01:46:02;13.30;57.60
32139;DHT22;18644;48.700;9.210;2023-03-31T01:48:43;13.30;57.70
32139;DHT22;18644;48.700;9.210;2023-03-31T01:51:16;13.30;57.90
32139;DHT22;18644;48.700;9.210;2023-03-31T01:53:50;13.30;57.90
32139;DHT22;18644;48.700;9.210;2023-03-31T01:56:30;13.30;58.00
32139;DHT22;18644;48.700;9.210;2023-03-31T01:59:02;13.40;58.10
32139;DHT22;18644;48.700;9.210;2023-03-31T02:01:35;13.40;58.00
32139;DHT22;18644;48.700;9.210;2023-03-31T02:04:08;13.40;58.10
32139;DHT22;18644;48.700;9.210;2023-03-31T02:06:41;13.40;58.00
32139;DHT22;18644;48.700;9.210;2023-03-31T02:09:14;13.50;58.00
32139;DHT22;18644;48.700;9.210;2023-03-31T02:11:44;13.60;58.00
32139;DHT22;18644;48.700;9.210;2023-03-31T02:14:15;13.60;58.00
32139;DHT22;18644;48.700;9.210;2023-03-31T02:16:49;13.70;58.00
32139;DHT22;18644;48.700;9.210;2023-03-31T02:19:18;13.70;58.00
32139;DHT22;18644;48.700;9.210;2023-03-31T02:21:46;13.80;58.10
32139;DHT22;18644;48.700;9.210;2023-03-31T02:24:16;13.80;57.80
32139;DHT22;18644;48.700;9.210;2023-03-31T02:26:50;13.80;58.00
32139;DHT22;18644;48.700;9.210;2023-03-31T02:29:20;13.80;58.10
32139;DHT22;18644;48.700;9.210;2023-03-31T02:31:51;13.80;58.00
32139;DHT22;18644;48.700;9.210;2023-03-31T02:34:24;13.80;58.10
32139;DHT22;18644;48.700;9.210;2023-03-31T02:36:51;13.80;58.20
32139;DHT22;18644;48.700;9.210;2023-03-31T02:39:22;13.80;58.30
32139;DHT22;18644;48.700;9.210;2023-03-31T02:41:53;13.80;58.40
32139;DHT22;18644;48.700;9.210;2023-03-31T02:44:21;13.80;58.50
32139;DHT22;18644;48.700;9.210;2023-03-31T02:46:48;13.70;58.50
32139;DHT22;18644;48.700;9.210;2023-03-31T02:49:17;13.70;58.50
32139;DHT22;18644;48.700;9.210;2023-03-31T02:52:10;13.70;58.60
32139;DHT22;18644;48.700;9.210;2023-03-31T02:55:09;13.70;58.70
32139;DHT22;18644;48.700;9.210;2023-03-31T02:58:14;13.70;58.70
32139;DHT22;18644;48.700;9.210;2023-03-31T03:00:59;13.70;58.70
32139;DHT22;18644;48.700;9.210;2023-03-31T03:03:41;13.70;58.70
32139;DHT22;18644;48.700;9.210;2023-03-31T03:06:30;13.60;58.60
32139;DHT22;18644;48.700;9.210;2023-03-31T03:09:23;13.60;58.70
32139;DHT22;18644;48.700;9.210;2023-03-31T03:12:02;13.60;58.80
32139;DHT22;18644;48.700;9.210;2023-03-31T03:14:38;13.60;58.70
32139;DHT22;18644;48.700;9.210;2023-03-31T03:17:10;13.60;58.70
32139;DHT22;18644;48.700;9.210;2023-03-31T03:19:41;13.60;58.70
32139;DHT22;18644;48.700;9.210;2023-03-31T03:22:08;13.60;58.80
32139;DHT22;18644;48.700;9.210;2023-03-31T03:24:35;13.50;58.70
32139;DHT22;18644;48.700;9.210;2023-03-31T03:27:04;13.50;58.70
32139;DHT22;18644;48.700;9.210;2023-03-31T03:29:31;13.40;58.60
32139;DHT22;18644;48.700;9.210;2023-03-31T03:31:59;13.40;58.50
32139;DHT22;18644;48.700;9.210;2023-03-31T03:34:26;13.30;58.50
32139;DHT22;18644;48.700;9.210;2023-03-31T03:36:53;13.30;58.50
32139;DHT22;18644;48.700;9.210;2023-03-31T03:39:21;13.20;58.60
32139;DHT22;18644;48.700;9.210;2023-03-31T03:41:48;13.20;58.80
32139;DHT22;18644;48.700;9.210;2023-03-31T03:44:15;13.10;58.90
32139;DHT22;18644;48.700;9.210;2023-03-31T03:46:42;13.10;59.10
32139;DHT22;18644;48.700;9.210;2023-03-31T03:49:11;13.10;59.30
32139;DHT22;18644;48.700;9.210;2023-03-31T03:51:38;13.10;59.40
32139;DHT22;18644;48.700;9.210;2023-03-31T03:54:05;13.10;59.50
32139;DHT22;18644;48.700;9.210;2023-03-31T03:56:32;13.10;59.70
32139;DHT22;18644;48.700;9.210;2023-03-31T03:58:59;13.10;59.80
32139;DHT22;18644;48.700;9.210;2023-03-31T04:01:26;13.00;59.90
32139;DHT22;18644;48.700;9.210;2023-03-31T04:03:53;13.00;59.90
32139;DHT22;18644;48.700;9.210;2023-03-31T04:06:22;13.00;59.90
32139;DHT22;18644;48.700;9.210;2023-03-31T04:08:49;13.00;59.90
32139;DHT22;18644;48.700;9.210;2023-03-31T04:11:19;13.00;59.90
32139;DHT22;18644;48.700;9.210;2023-03-31T04:13:46;12.90;60.60
32139;DHT22;18644;48.700;9.210;2023-03-31T04:16:14;12.90;59.80
32139;DHT22;18644;48.700;9.210;2023-03-31T04:18:41;12.90;59.80
32139;DHT22;18644;48.700;9.210;2023-03-31T04:21:09;12.80;59.80
32139;DHT22;18644;48.700;9.210;2023-03-31T04:23:44;12.80;59.80
32139;DHT22;18644;48.700;9.210;2023-03-31T04:26:12;12.80;59.90
32139;DHT22;18644;48.700;9.210;2023-03-31T04:28:40;12.80;60.00
32139;DHT22;18644;48.700;9.210;2023-03-31T04:31:12;12.70;60.00
32139;DHT22;18644;48.700;9.210;2023-03-31T04:33:41;12.70;60.10
32139;DHT22;18644;48.700;9.210;2023-03-31T04:36:11;12.70;60.10
32139;DHT22;18644;48.700;9.210;2023-03-31T04:38:44;12.70;60.20
32139;DHT22;18644;48.700;9.210;2023-03-31T04:41:12;12.70;60.40
32139;DHT22;18644;48.700;9.210;2023-03-31T04:43:39;12.70;60.50
32139;DHT22;18644;48.700;9.210;2023-03-31T04:46:07;12.70;60.60
32139;DHT22;18644;48.700;9.210;2023-03-31T04:48:34;12.60;60.50
32139;DHT22;18644;48.700;9.210;2023-03-31T04:51:02;12.60;60.60
32139;DHT22;18644;48.700;9.210;2023-03-31T04:53:29;12.70;60.80
32139;DHT22;18644;48.700;9.210;2023-03-31T04:55:57;12.60;60.90
32139;DHT22;18644;48.700;9.210;2023-03-31T04:58:24;12.60;61.00
32139;DHT22;18644;48.700;9.210;2023-03-31T05:00:51;12.70;61.10
32139;DHT22;18644;48.700;9.210;2023-03-31T05:03:19;12.60;61.10
32139;DHT22;18644;48.700;9.210;2023-03-31T05:05:46;12.70;61.30
32139;DHT22;18644;48.700;9.210;2023-03-31T05:08:14;12.70;61.40
32139;DHT22;18644;48.700;9.210;2023-03-31T05:10:41;12.70;61.50
32139;DHT22;18644;48.700;9.210;2023-03-31T05:13:10;12.70;61.50
32139;DHT22;18644;48.700;9.210;2023-03-31T05:15:37;12.70;61.60
32139;DHT22;18644;48.700;9.210;2023-03-31T05:18:04;12.70;61.70
32139;DHT22;18644;48.700;9.210;2023-03-31T05:20:31;12.70;61.80
32139;DHT22;18644;48.700;9.210;2023-03-31T05:22:58;12.70;61.80
32139;DHT22;18644;48.700;9.210;2023-03-31T05:25:25;12.70;61.80
32139;DHT22;18644;48.700;9.210;2023-03-31T05:27:57;12.80;61.90
32139;DHT22;18644;48.700;9.210;2023-03-31T05:30:27;12.80;61.90
32139;DHT22;18644;48.700;9.210;2023-03-31T05:32:54;12.80;62.00
32139;DHT22;18644;48.700;9.210;2023-03-31T05:35:21;12.80;62.00
32139;DHT22;18644;48.700;9.210;2023-03-31T05:37:49;12.80;62.00
32139;DHT22;18644;48.700;9.210;2023-03-31T05:40:16;12.80;62.10
32139;DHT22;18644;48.700;9.210;2023-03-31T05:42:43;12.90;62.30
32139;DHT22;18644;48.700;9.210;2023-03-31T05:45:10;12.90;62.30
32139;DHT22;18644;48.700;9.210;2023-03-31T05:47:39;12.90;62.50
32139;DHT22;18644;48.700;9.210;2023-03-31T05:50:07;12.90;62.50
32139;DHT22;18644;48.700;9.210;2023-03-31T05:52:34;12.90;62.60
32139;DHT22;18644;48.700;9.210;2023-03-31T05:55:02;12.90;62.50
32139;DHT22;18644;48.700;9.210;2023-03-31T05:57:32;12.90;62.70
32139;DHT22;18644;48.700;9.210;2023-03-31T05:59:59;12.90;62.80
32139;DHT22;18644;48.700;9.210;2023-03-31T06:02:26;12.90;62.90
32139;DHT22;18644;48.700;9.210;2023-03-31T06:04:55;12.90;63.00
32139;DHT22;18644;48.700;9.210;2023-03-31T06:07:23;13.00;63.10
32139;DHT22;18644;48.700;9.210;2023-03-31T06:09:50;13.00;63.20
32139;DHT22;18644;48.700;9.210;2023-03-31T06:12:17;13.00;63.20
32139;DHT22;18644;48.700;9.210;2023-03-31T06:14:45;13.00;63.30
32139;DHT22;18644;48.700;9.210;2023-03-31T06:17:12;13.00;63.50
32139;DHT22;18644;48.700;9.210;2023-03-31T06:19:39;13.00;63.70
32139;DHT22;18644;48.700;9.210;2023-03-31T06:22:07;13.00;63.70
32139;DHT22;18644;48.700;9.210;2023-03-31T06:24:34;13.00;63.80
32139;DHT22;18644;48.700;9.210;2023-03-31T06:27:01;13.00;63.90
32139;DHT22;18644;48.700;9.210;2023-03-31T06:29:28;13.00;63.80
32139;DHT22;18644;48.700;9.210;2023-03-31T06:31:58;13.10;63.90
32139;DHT22;18644;48.700;9.210;2023-03-31T06:34:29;13.10;63.90
32139;DHT22;18644;48.700;9.210;2023-03-31T06:36:56;13.10;63.80
32139;DHT22;18644;48.700;9.210;2023-03-31T06:39:25;13.10;63.80
32139;DHT22;18644;48.700;9.210;2023-03-31T06:41:53;13.10;63.80
32139;DHT22;18644;48.700;9.210;2023-03-31T06:44:20;13.10;63.90
32139;DHT22;18644;48.700;9.210;2023-03-31T06:46:47;13.10;63.90
32139;DHT22;18644;48.700;9.210;2023-03-31T06:49:15;13.20;64.00
32139;DHT22;18644;48.700;9.210;2023-03-31T06:51:42;13.10;63.90
32139;DHT22;18644;48.700;9.210;2023-03-31T06:54:09;13.10;63.80
32139;DHT22;18644;48.700;9.210;2023-03-31T06:56:37;13.10;63.80
32139;DHT22;18644;48.700;9.210;2023-03-31T06:59:04;13.20;63.90
32139;DHT22;18644;48.700;9.210;2023-03-31T07:01:31;13.10;63.90
32139;DHT22;18644;48.700;9.210;2023-03-31T07:04:01;13.10;64.10
32139;DHT22;18644;48.700;9.210;2023-03-31T07:06:29;13.10;64.10
32139;DHT22;18644;48.700;9.210;2023-03-31T07:08:56;13.10;64.20
32139;DHT22;18644;48.700;9.210;2023-03-31T07:11:23;13.10;64.40
32139;DHT22;18644;48.700;9.210;2023-03-31T07:13:51;13.10;64.60
32139;DHT22;18644;48.700;9.210;2023-03-31T07:16:18;13.10;64.50
32139;DHT22;18644;48.700;9.210;2023-03-31T07:18:45;13.10;64.60
32139;DHT22;18644;48.700;9.210;2023-03-31T07:21:12;13.10;65.60
32139;DHT22;18644;48.700;9.210;2023-03-31T07:23:39;13.10;64.90
32139;DHT22;18644;48.700;9.210;2023-03-31T07:26:06;13.00;64.90
32139;DHT22;18644;48.700;9.210;2023-03-31T07:28:34;13.10;65.00
32139;DHT22;18644;48.700;9.210;2023-03-31T07:31:09;13.10;65.00
32139;DHT22;18644;48.700;9.210;2023-03-31T07:33:36;13.10;65.00
32139;DHT22;18644;48.700;9.210;2023-03-31T07:36:04;13.20;64.80
32139;DHT22;18644;48.700;9.210;2023-03-31T07:38:31;13.20;64.50
32139;DHT22;18644;48.700;9.210;2023-03-31T07:40:59;13.20;64.10
32139;DHT22;18644;48.700;9.210;2023-03-31T07:43:26;13.20;64.00
32139;DHT22;18644;48.700;9.210;2023-03-31T07:45:53;13.20;63.70
32139;DHT22;18644;48.700;9.210;2023-03-31T07:48:21;13.20;63.50
32139;DHT22;18644;48.700;9.210;2023-03-31T07:50:48;13.20;63.40
32139;DHT22;18644;48.700;9.210;2023-03-31T07:53:16;13.20;63.70
32139;DHT22;18644;48.700;9.210;2023-03-31T07:55:43;13.20;63.70
32139;DHT22;18644;48.700;9.210;2023-03-31T07:58:11;13.30;63.60
32139;DHT22;18644;48.700;9.210;2023-03-31T08:00:38;13.30;63.30
32139;DHT22;18644;48.700;9.210;2023-03-31T08:03:05;13.40;64.30
32139;DHT22;18644;48.700;9.210;2023-03-31T08:05:33;13.40;63.70
32139;DHT22;18644;48.700;9.210;2023-03-31T08:08:00;13.40;63.70
32139;DHT22;18644;48.700;9.210;2023-03-31T08:10:27;13.50;63.40
32139;DHT22;18644;48.700;9.210;2023-03-31T08:12:54;13.60;63.10
32139;DHT22;18644;48.700;9.210;2023-03-31T08:15:22;13.60;63.30
32139;DHT22;18644;48.700;9.210;2023-03-31T08:17:49;13.60;63.90
32139;DHT22;18644;48.700;9.210;2023-03-31T08:20:16;13.70;64.40
32139;DHT22;18644;48.700;9.210;2023-03-31T08:22:44;13.80;64.80
32139;DHT22;18644;48.700;9.210;2023-03-31T08:25:11;14.00;65.20
32139;DHT22;18644;48.700;9.210;2023-03-31T08:27:39;14.10;65.30
32139;DHT22;18644;48.700;9.210;2023-03-31T08:30:09;14.30;65.60
32139;DHT22;18644;48.700;9.210;2023-03-31T08:32:37;14.50;65.60
32139;DHT22;18644;48.700;9.210;2023-03-31T08:35:05;14.60;65.00
32139;DHT22;18644;48.700;9.210;2023-03-31T08:37:33;14.80;64.80
32139;DHT22;18644;48.700;9.210;2023-03-31T08:40:02;14.90;64.40
32139;DHT22;18644;48.700;9.210;2023-03-31T08:42:36;15.10;64.50
32139;DHT22;18644;48.700;9.210;2023-03-31T08:45:10;15.20;64.40
32139;DHT22;18644;48.700;9.210;2023-03-31T08:47:44;15.40;64.30
32139;DHT22;18644;48.700;9.210;2023-03-31T08:50:15;15.50;64.20
32139;DHT22;18644;48.700;9.210;2023-03-31T08:52:47;15.70;64.20
32139;DHT22;18644;48.700;9.210;2023-03-31T08:55:23;15.90;64.10
32139;DHT22;18644;48.700;9.210;2023-03-31T08:57:57;16.00;63.50
32139;DHT22;18644;48.700;9.210;2023-03-31T09:00:29;16.20;63.00
32139;DHT22;18644;48.700;9.210;2023-03-31T09:03:05;16.30;62.90
32139;DHT22;18644;48.700;9.210;2023-03-31T09:05:52;16.40;62.60
32139;DHT22;18644;48.700;9.210;2023-03-31T09:08:31;16.60;62.50
32139;DHT22;18644;48.700;9.210;2023-03-31T09:11:25;16.80;62.50
32139;DHT22;18644;48.700;9.210;2023-03-31T09:14:15;16.90;61.50
32139;DHT22;18644;48.700;9.210;2023-03-31T09:16:50;17.10;61.20
32139;DHT22;18644;48.700;9.210;2023-03-31T09:19:29;17.20;61.30
32139;DHT22;18644;48.700;9.210;2023-03-31T09:22:00;17.40;61.10
32139;DHT22;18644;48.700;9.210;2023-03-31T09:24:30;17.50;60.60
32139;DHT22;18644;48.700;9.210;2023-03-31T09:27:05;17.70;59.60
32139;DHT22;18644;48.700;9.210;2023-03-31T09:29:40;17.80;59.00
32139;DHT22;18644;48.700;9.210;2023-03-31T09:32:14;17.80;58.50
32139;DHT22;18644;48.700;9.210;2023-03-31T09:34:42;18.00;58.60
32139;DHT22;18644;48.700;9.210;2023-03-31T09:37:12;18.10;58.40
32139;DHT22;18644;48.700;9.210;2023-03-31T09:39:40;18.20;58.20
32139;DHT22;18644;48.700;9.210;2023-03-31T09:42:10;18.30;57.40
32139;DHT22;18644;48.700;9.210;2023-03-31T09:44:43;18.30;56.40
32139;DHT22;18644;48.700;9.210;2023-03-31T09:47:15;18.20;55.40
32139;DHT22;18644;48.700;9.210;2023-03-31T09:49:45;18.20;55.20
32139;DHT22;18644;48.700;9.210;2023-03-31T09:52:19;18.10;54.50
32139;DHT22;18644;48.700;9.210;2023-03-31T09:54:53;18.00;54.10
32139;DHT22;18644;48.700;9.210;2023-03-31T09:57:26;17.90;53.70
32139;DHT22;18644;48.700;9.210;2023-03-31T10:00:01;17.90;54.00
32139;DHT22;18644;48.700;9.210;2023-03-31T10:02:38;17.90;53.90
32139;DHT22;18644;48.700;9.210;2023-03-31T10:05:17;17.90;54.50
32139;DHT22;18644;48.700;9.210;2023-03-31T10:07:53;18.00;54.70
32139;DHT22;18644;48.700;9.210;2023-03-31T10:10:44;18.10;54.70
32139;DHT22;18644;48.700;9.210;2023-03-31T10:13:16;18.20;53.70
32139;DHT22;18644;48.700;9.210;2023-03-31T10:15:45;18.30;52.30
32139;DHT22;18644;48.700;9.210;2023-03-31T10:18:13;18.40;52.10
32139;DHT22;18644;48.700;9.210;2023-03-31T10:20:47;18.40;51.30
32139;DHT22;18644;48.700;9.210;2023-03-31T10:23:17;18.50;51.90
32139;DHT22;18644;48.700;9.210;2023-03-31T10:25:50;18.50;51.90
32139;DHT22;18644;48.700;9.210;2023-03-31T10:28:19;18.60;52.30
32139;DHT22;18644;48.700;9.210;2023-03-31T10:30:48;18.60;51.60
32139;DHT22;18644;48.700;9.210;2023-03-31T10:33:18;18.70;51.40
32139;DHT22;18644;48.700;9.210;2023-03-31T10:35:53;18.80;50.90
32139;DHT22;18644;48.700;9.210;2023-03-31T10:38:23;18.80;51.20
32139;DHT22;18644;48.700;9.210;2023-03-31T10:40:54;19.00;51.20
32139;DHT22;18644;48.700;9.210;2023-03-31T10:43:27;19.00;51.30
32139;DHT22;18644;48.700;9.210;2023-03-31T10:45:56;19.10;50.90
32139;DHT22;18644;48.700;9.210;2023-03-31T10:48:26;19.20;50.60
32139;DHT22;18644;48.700;9.210;2023-03-31T10:50:58;19.30;49.20
32139;DHT22;18644;48.700;9.210;2023-03-31T10:53:26;19.40;49.30
32139;DHT22;18644;48.700;9.210;2023-03-31T10:56:04;19.40;49.90
32139;DHT22;18644;48.700;9.210;2023-03-31T10:58:53;19.50;50.00
32139;DHT22;18644;48.700;9.210;2023-03-31T11:01:35;19.60;48.70
32139;DHT22;18644;48.700;9.210;2023-03-31T11:04:47;19.70;48.60
32139;DHT22;18644;48.700;9.210;2023-03-31T11:07:34;19.80;48.20
32139;DHT22;18644;48.700;9.210;2023-03-31T11:10:20;19.80;48.70
32139;DHT22;18644;48.700;9.210;2023-03-31T11:12:58;19.80;47.10
32139;DHT22;18644;48.700;9.210;2023-03-31T11:15:30;19.70;46.80
32139;DHT22;18644;48.700;9.210;2023-03-31T11:18:10;19.60;47.10
32139;DHT22;18644;48.700;9.210;2023-03-31T11:20:52;19.50;46.60
32139;DHT22;18644;48.700;9.210;2023-03-31T11:23:34;19.20;47.00
32139;DHT22;18644;48.700;9.210;2023-03-31T11:26:09;18.90;46.50
32139;DHT22;18644;48.700;9.210;2023-03-31T11:28:57;18.40;46.20
32139;DHT22;18644;48.700;9.210;2023-03-31T11:31:40;17.70;46.10
32139;DHT22;18644;48.700;9.210;2023-03-31T11:34:32;16.90;46.80
32139;DHT22;18644;48.700;9.210;2023-03-31T11:37:13;16.10;47.90
32139;DHT22;18644;48.700;9.210;2023-03-31T11:39:59;15.40;49.00
32139;DHT22;18644;48.700;9.210;2023-03-31T11:42:36;14.80;50.10
32139;DHT22;18644;48.700;9.210;2023-03-31T11:45:14;14.40;51.20
32139;DHT22;18644;48.700;9.210;2023-03-31T11:47:47;14.00;52.00
32139;DHT22;18644;48.700;9.210;2023-03-31T11:50:18;13.70;52.80
32139;DHT22;18644;48.700;9.210;2023-03-31T11:52:52;13.50;53.50
32139;DHT22;18644;48.700;9.210;2023-03-31T11:55:25;13.40;54.20
32139;DHT22;18644;48.700;9.210;2023-03-31T11:57:58;13.30;55.00
32139;DHT22;18644;48.700;9.210;2023-03-31T12:00:29;13.20;56.00
32139;DHT22;18644;48.700;9.210;2023-03-31T12:03:07;13.20;56.60
32139;DHT22;18644;48.700;9.210;2023-03-31T12:05:41;13.30;57.50
32139;DHT22;18644;48.700;9.210;2023-03-31T12:08:14;13.40;57.90
32139;DHT22;18644;48.700;9.210;2023-03-31T12:10:45;13.60;58.80
32139;DHT22;18644;48.700;9.210;2023-03-31T12:13:30;13.80;59.20
32139;DHT22;18644;48.700;9.210;2023-03-31T12:16:05;14.10;59.50
32139;DHT22;18644;48.700;9.210;2023-03-31T12:18:40;14.40;58.80
32139;DHT22;18644;48.700;9.210;2023-03-31T12:21:09;14.60;57.90
32139;DHT22;18644;48.700;9.210;2023-03-31T12:23:40;14.70;57.90
32139;DHT22;18644;48.700;9.210;2023-03-31T12:26:17;14.90;58.00
32139;DHT22;18644;48.700;9.210;2023-03-31T12:28:54;15.00;58.10
32139;DHT22;18644;48.700;9.210;2023-03-31T12:31:23;15.30;58.40
32139;DHT22;18644;48.700;9.210;2023-03-31T12:33:56;15.50;58.10
32139;DHT22;18644;48.700;9.210;2023-03-31T12:36:35;15.70;58.10
32139;DHT22;18644;48.700;9.210;2023-03-31T12:39:27;15.90;57.20
32139;DHT22;18644;48.700;9.210;2023-03-31T12:42:18;16.00;56.30
32139;DHT22;18644;48.700;9.210;2023-03-31T12:45:01;16.00;55.70
32139;DHT22;18644;48.700;9.210;2023-03-31T12:47:52;16.10;55.70
32139;DHT22;18644;48.700;9.210;2023-03-31T12:50:49;16.10;55.80
32139;DHT22;18644;48.700;9.210;2023-03-31T12:53:30;16.30;56.30
32139;DHT22;18644;48.700;9.210;2023-03-31T12:56:00;16.50;56.10
32139;DHT22;18644;48.700;9.210;2023-03-31T12:58:42;16.60;55.50
32139;DHT22;18644;48.700;9.210;2023-03-31T13:01:13;16.70;54.70
32139;DHT22;18644;48.700;9.210;2023-03-31T13:03:47;16.90;55.30
32139;DHT22;18644;48.700;9.210;2023-03-31T13:06:52;17.00;55.30
32139;DHT22;18644;48.700;9.210;2023-03-31T13:09:45;17.20;53.60
32139;DHT22;18644;48.700;9.210;2023-03-31T13:12:19;17.30;53.20
32139;DHT22;18644;48.700;9.210;2023-03-31T13:14:49;17.30;53.10
32139;DHT22;18644;48.700;9.210;2023-03-31T13:17:29;17.30;52.80
32139;DHT22;18644;48.700;9.210;2023-03-31T13:20:16;17.30;52.60
32139;DHT22;18644;48.700;9.210;2023-03-31T13:22:59;17.30;52.40
32139;DHT22;18644;48.700;9.210;2023-03-31T13:25:41;17.20;52.00
32139;DHT22;18644;48.700;9.210;2023-03-31T13:28:13;17.10;51.80
32139;DHT22;18644;48.700;9.210;2023-03-31T13:30:59;17.00;51.80
32139;DHT22;18644;48.700;9.210;2023-03-31T13:33:36;16.80;51.70
32139;DHT22;18644;48.700;9.210;2023-03-31T13:36:18;16.60;51.80
32139;DHT22;18644;48.700;9.210;2023-03-31T13:39:07;16.40;52.10
32139;DHT22;18644;48.700;9.210;2023-03-31T13:41:50;16.10;52.50
32139;DHT22;18644;48.700;9.210;2023-03-31T13:44:46;15.90;53.00
32139;DHT22;18644;48.700;9.210;2023-03-31T13:50:48;15.40;53.50
32139;DHT22;18644;48.700;9.210;2023-03-31T13:53:31;15.10;53.80
32139;DHT22;18644;48.700;9.210;2023-03-31T13:56:30;14.80;54.00
32139;DHT22;18644;48.700;9.210;2023-03-31T14:02:30;14.20;54.70
32139;DHT22;18644;48.700;9.210;2023-03-31T14:05:23;13.90;54.80
32139;DHT22;18644;48.700;9.210;2023-03-31T14:07:55;13.70;55.50
32139;DHT22;18644;48.700;9.210;2023-03-31T14:10:27;13.60;56.00
32139;DHT22;18644;48.700;9.210;2023-03-31T14:13:08;13.50;56.30
32139;DHT22;18644;48.700;9.210;2023-03-31T14:15:39;13.40;57.30
32139;DHT22;18644;48.700;9.210;2023-03-31T14:18:09;13.50;58.80
32139;DHT22;18644;48.700;9.210;2023-03-31T14:21:03;13.70;59.20
32139;DHT22;18644;48.700;9.210;2023-03-31T14:23:46;13.90;59.20
32139;DHT22;18644;48.700;9.210;2023-03-31T14:26:29;14.10;59.10
32139;DHT22;18644;48.700;9.210;2023-03-31T14:29:11;14.30;59.20
32139;DHT22;18644;48.700;9.210;2023-03-31T14:31:46;14.50;58.80
32139;DHT22;18644;48.700;9.210;2023-03-31T14:34:36;14.70;58.10
32139;DHT22;18644;48.700;9.210;2023-03-31T14:37:13;14.80;57.40
32139;DHT22;18644;48.700;9.210;2023-03-31T14:39:44;14.80;56.90
32139;DHT22;18644;48.700;9.210;2023-03-31T14:42:13;14.90;57.10
32139;DHT22;18644;48.700;9.210;2023-03-31T14:44:44;15.00;57.70
32139;DHT22;18644;48.700;9.210;2023-03-31T14:47:13;15.10;58.20
32139;DHT22;18644;48.700;9.210;2023-03-31T14:49:41;15.30;58.40
32139;DHT22;18644;48.700;9.210;2023-03-31T14:52:14;15.40;58.50
32139;DHT22;18644;48.700;9.210;2023-03-31T14:54:44;15.70;58.60
32139;DHT22;18644;48.700;9.210;2023-03-31T14:57:16;15.90;58.30
32139;DHT22;18644;48.700;9.210;2023-03-31T14:59:47;16.00;58.00
32139;DHT22;18644;48.700;9.210;2023-03-31T15:02:22;16.20;57.80
32139;DHT22;18644;48.700;9.210;2023-03-31T15:04:56;16.30;57.70
32139;DHT22;18644;48.700;9.210;2023-03-31T15:07:23;16.50;57.60
32139;DHT22;18644;48.700;9.210;2023-03-31T15:09:52;16.70;57.50
32139;DHT22;18644;48.700;9.210;2023-03-31T15:12:20;16.80;57.20
32139;DHT22;18644;48.700;9.210;2023-03-31T15:14:51;16.90;56.70
32139;DHT22;18644;48.700;9.210;2023-03-31T15:17:23;17.00;56.60
32139;DHT22;18644;48.700;9.210;2023-03-31T15:19:54;17.10;56.30
32139;DHT22;18644;48.700;9.210;2023-03-31T15:22:25;17.20;56.00
32139;DHT22;18644;48.700;9.210;2023-03-31T15:24:53;17.20;55.60
32139;DHT22;18644;48.700;9.210;2023-03-31T15:27:29;17.30;55.10
32139;DHT22;18644;48.700;9.210;2023-03-31T15:30:02;17.20;54.30
32139;DHT22;18644;48.700;9.210;2023-03-31T15:32:34;17.20;54.00
32139;DHT22;18644;48.700;9.210;2023-03-31T15:35:03;17.10;53.50
32139;DHT22;18644;48.700;9.210;2023-03-31T15:37:37;17.00;53.30
32139;DHT22;18644;48.700;9.210;2023-03-31T15:40:16;16.90;53.10
32139;DHT22;18644;48.700;9.210;2023-03-31T15:42:45;16.80;53.30
32139;DHT22;18644;48.700;9.210;2023-03-31T15:45:36;16.60;53.40
32139;DHT22;18644;48.700;9.210;2023-03-31T15:48:20;16.50;53.50
32139;DHT22;18644;48.700;9.210;2023-03-31T15:50:49;16.40;53.60
32139;DHT22;18644;48.700;9.210;2023-03-31T15:53:24;16.30;53.70
32139;DHT22;18644;48.700;9.210;2023-03-31T15:55:58;16.20;53.80
32139;DHT22;18644;48.700;9.210;2023-03-31T15:58:53;16.20;53.80
32139;DHT22;18644;48.700;9.210;2023-03-31T16:01:26;16.10;54.00
32139;DHT22;18644;48.700;9.210;2023-03-31T16:03:58;16.10;54.10
32139;DHT22;18644;48.700;9.210;2023-03-31T16:06:33;16.00;54.00
32139;DHT22;18644;48.700;9.210;2023-03-31T16:09:06;16.00;53.90
32139;DHT22;18644;48.700;9.210;2023-03-31T16:11:40;15.90;53.90
32139;DHT22;18644;48.700;9.210;2023-03-31T16:14:14;15.80;54.00
32139;DHT22;18644;48.700;9.210;2023-03-31T16:16:49;15.80;54.00
32139;DHT22;18644;48.700;9.210;2023-03-31T16:19:20;15.70;54.00